Time;durP1;ratioP1;P1;durP2;ratioP2;P2;SDS_P1;SDS_P2;PMS_P1;PMS_P2;Temp;Humidity;BMP_temperature;BMP_pressure;BME280_temperature;BME280_humidity;BME280_pressure;Samples;Min_cycle;Max_cycle;Signal;HPM_P1;HPM_P2
2022/04/10 00:00:14;;;;;;;4.80;2.60;;;4.10;99.90;;;;;;5034289;28;20183;-84
2022/04/10 00:02:44;;;;;;;9.83;2.93;;;4.10;99.90;;;;;;5034042;28;20203;-84
2022/04/10 00:05:10;;;;;;;4.50;2.70;;;4.10;99.90;;;;;;5049152;28;20453;-84
2022/04/10 00:07:36;;;;;;;3.37;2.23;;;4.00;99.90;;;;;;5053650;28;20417;-84
2022/04/10 00:10:01;;;;;;;5.47;2.33;;;4.00;99.90;;;;;;5053498;28;20425;-83
2022/04/10 00:12:27;;;;;;;4.90;3.03;;;4.00;99.90;;;;;;5053646;28;20207;-84
2022/04/10 00:14:52;;;;;;;4.57;2.73;;;3.90;99.90;;;;;;5053661;28;20293;-83
2022/04/10 00:17:18;;;;;;;4.70;1.90;;;3.90;99.90;;;;;;5051321;28;20187;-83
2022/04/10 00:19:45;;;;;;;3.80;2.40;;;4.00;99.90;;;;;;5053463;28;20222;-84
2022/04/10 00:22:12;;;;;;;4.27;3.00;;;3.90;99.90;;;;;;5053287;28;20472;-84
2022/04/10 00:24:38;;;;;;;4.87;2.50;;;3.90;99.90;;;;;;5052824;28;20432;-83
2022/04/10 00:27:05;;;;;;;7.33;2.53;;;3.80;99.90;;;;;;5053462;28;20455;-84
2022/04/10 00:29:31;;;;;;;5.63;2.80;;;3.80;99.90;;;;;;5053479;28;20474;-83
2022/04/10 00:31:57;;;;;;;4.97;2.40;;;3.80;99.90;;;;;;5053350;28;20459;-84
2022/04/10 00:34:23;;;;;;;7.43;2.63;;;3.80;99.90;;;;;;5050830;28;20455;-83
2022/04/10 00:36:48;;;;;;;5.20;2.77;;;3.80;99.90;;;;;;5052983;28;20284;-83
2022/04/10 00:39:15;;;;;;;7.33;2.80;;;3.80;99.90;;;;;;5037028;28;20257;-84
2022/04/10 00:41:41;;;;;;;6.83;3.20;;;3.80;99.90;;;;;;5053113;28;20892;-83
2022/04/10 00:44:11;;;;;;;4.23;2.40;;;3.80;99.90;;;;;;5053330;28;20266;-83
2022/04/10 00:46:38;;;;;;;4.50;2.13;;;3.80;99.90;;;;;;5053308;28;20548;-84
2022/04/10 00:49:05;;;;;;;4.43;2.37;;;3.80;99.90;;;;;;5053421;28;20421;-83
2022/04/10 00:51:41;;;;;;;5.33;3.37;;;3.70;99.90;;;;;;5053200;28;20973;-84
2022/04/10 00:54:11;;;;;;;5.67;3.30;;;3.70;99.90;;;;;;5053263;28;20511;-84
2022/04/10 00:56:37;;;;;;;6.13;2.90;;;3.70;99.90;;;;;;5053066;28;20516;-85
2022/04/10 00:59:04;;;;;;;4.20;2.40;;;3.70;99.90;;;;;;5056553;28;21009;-84
2022/04/10 01:01:29;;;;;;;5.93;2.77;;;3.70;99.90;;;;;;5056791;28;20228;-83
2022/04/10 01:03:55;;;;;;;5.30;3.10;;;3.60;99.90;;;;;;5056838;28;20531;-83
2022/04/10 01:06:22;;;;;;;5.57;2.83;;;3.70;99.90;;;;;;5056930;28;20186;-84
2022/04/10 01:08:48;;;;;;;5.63;3.10;;;3.70;99.90;;;;;;5056615;28;20615;-83
2022/04/10 01:11:15;;;;;;;7.07;3.20;;;3.60;99.90;;;;;;5056609;28;21052;-83
2022/04/10 01:13:41;;;;;;;10.40;3.23;;;3.60;99.90;;;;;;5056603;28;20453;-83
2022/04/10 01:16:07;;;;;;;5.60;3.10;;;3.60;99.90;;;;;;5056727;28;20432;-83
2022/04/10 01:18:34;;;;;;;5.83;3.30;;;3.60;99.90;;;;;;5056599;28;20413;-83
2022/04/10 01:21:04;;;;;;;5.47;2.40;;;3.50;99.90;;;;;;5056717;28;20992;-84
2022/04/10 01:23:30;;;;;;;5.47;3.00;;;3.50;99.90;;;;;;5056395;28;20431;-83
2022/04/10 01:25:56;;;;;;;5.00;3.00;;;3.40;99.90;;;;;;5074416;28;20471;-83
2022/04/10 01:28:22;;;;;;;5.90;2.90;;;3.40;99.90;;;;;;5056374;28;20456;-83
2022/04/10 01:30:47;;;;;;;4.30;2.60;;;3.30;99.90;;;;;;5056525;28;20411;-84
2022/04/10 01:33:13;;;;;;;6.50;2.83;;;3.30;99.90;;;;;;5056495;28;20189;-83
2022/04/10 01:35:39;;;;;;;6.00;2.57;;;3.30;99.90;;;;;;5056190;28;20654;-83
2022/04/10 01:38:06;;;;;;;4.70;2.67;;;3.30;99.90;;;;;;5059714;28;20182;-84
2022/04/10 01:40:33;;;;;;;5.97;2.70;;;3.40;99.90;;;;;;5063326;28;20424;-85
2022/04/10 01:42:59;;;;;;;4.40;2.50;;;3.30;99.90;;;;;;5063663;28;20502;-85
2022/04/10 01:45:24;;;;;;;7.40;3.37;;;3.30;99.90;;;;;;5063324;28;20416;-84
2022/04/10 01:47:53;;;;;;;4.83;3.20;;;3.30;99.90;;;;;;5062961;28;20427;-84
2022/04/10 01:50:22;;;;;;;6.37;3.10;;;3.20;99.90;;;;;;5063394;28;20181;-84
2022/04/10 01:52:47;;;;;;;7.23;3.53;;;3.20;99.90;;;;;;5062894;28;20456;-85
2022/04/10 01:55:13;;;;;;;5.53;3.47;;;3.20;99.90;;;;;;5063590;28;20847;-84
2022/04/10 01:57:39;;;;;;;10.00;3.47;;;3.20;99.90;;;;;;5063622;28;20188;-85
2022/04/10 02:00:05;;;;;;;4.27;2.70;;;3.20;99.90;;;;;;5063727;28;20221;-84
2022/04/10 02:02:31;;;;;;;5.70;3.10;;;3.10;99.90;;;;;;5062780;28;20591;-85
2022/04/10 02:04:57;;;;;;;6.90;2.93;;;3.10;99.90;;;;;;5062821;28;20426;-85
2022/04/10 02:07:23;;;;;;;8.57;3.40;;;3.10;99.90;;;;;;5054250;23;20235;-68
2022/04/10 02:09:48;;;;;;;6.50;3.20;;;3.10;99.90;;;;;;5014530;28;20210;-67
2022/04/10 02:12:14;;;;;;;5.03;2.80;;;3.10;99.90;;;;;;5015636;28;20726;-67
2022/04/10 02:14:40;;;;;;;6.37;3.03;;;3.20;99.90;;;;;;5015487;28;20240;-67
2022/04/10 02:17:08;;;;;;;5.57;3.50;;;3.20;99.90;;;;;;5015398;28;20273;-68
2022/04/10 02:19:34;;;;;;;4.80;2.63;;;3.20;99.90;;;;;;5015046;28;20326;-67
2022/04/10 02:22:01;;;;;;;4.47;3.00;;;3.20;99.90;;;;;;5015129;28;20553;-68
2022/04/10 02:24:27;;;;;;;5.20;3.13;;;3.20;99.90;;;;;;5015394;28;20176;-68
2022/04/10 02:26:52;;;;;;;6.33;3.00;;;3.20;99.90;;;;;;5015290;28;20468;-67
2022/04/10 02:29:18;;;;;;;4.53;2.80;;;3.20;99.90;;;;;;5015063;28;20964;-68
2022/04/10 02:31:44;;;;;;;5.13;3.00;;;3.30;99.90;;;;;;5015373;28;20693;-68
2022/04/10 02:34:10;;;;;;;3.70;2.47;;;3.30;99.90;;;;;;5015272;28;20183;-68
2022/04/10 02:36:35;;;;;;;5.63;3.03;;;3.40;99.90;;;;;;5014774;28;20188;-67
2022/04/10 02:39:01;;;;;;;4.03;2.80;;;3.40;99.90;;;;;;5015110;28;20682;-67
2022/04/10 02:41:27;;;;;;;5.27;3.00;;;3.40;99.90;;;;;;5014972;28;20766;-67
2022/04/10 02:43:52;;;;;;;5.50;3.20;;;3.50;99.90;;;;;;5015302;28;20180;-67
2022/04/10 02:46:18;;;;;;;4.10;2.73;;;3.60;99.90;;;;;;5014965;28;20179;-68
2022/04/10 02:48:44;;;;;;;3.67;2.60;;;3.70;99.90;;;;;;5014771;28;20697;-67
2022/04/10 02:51:10;;;;;;;6.63;3.03;;;3.70;99.90;;;;;;5014807;28;20266;-67
2022/04/10 02:53:35;;;;;;;4.43;2.97;;;3.80;99.90;;;;;;5014429;28;20183;-67
2022/04/10 02:56:01;;;;;;;5.00;3.03;;;3.80;99.90;;;;;;5014659;28;20181;-67
2022/04/10 02:58:27;;;;;;;7.23;2.77;;;3.90;99.90;;;;;;5014416;28;20740;-68
2022/04/10 03:00:53;;;;;;;5.23;2.70;;;3.90;99.90;;;;;;5014694;28;20259;-67
2022/04/10 03:03:19;;;;;;;5.73;2.93;;;4.00;99.90;;;;;;5014643;28;20223;-68
2022/04/10 03:05:44;;;;;;;5.80;3.87;;;4.10;99.90;;;;;;5014534;28;20682;-67
2022/04/10 03:08:10;;;;;;;6.73;3.73;;;4.10;99.90;;;;;;5014228;28;20195;-67
2022/04/10 03:10:36;;;;;;;8.10;3.17;;;4.20;99.90;;;;;;5014618;28;20671;-67
2022/04/10 03:13:02;;;;;;;5.07;2.87;;;4.20;99.90;;;;;;5014507;28;20199;-67
2022/04/10 03:15:27;;;;;;;8.10;3.53;;;4.20;99.90;;;;;;5014592;28;20280;-67
2022/04/10 03:17:53;;;;;;;5.20;3.07;;;4.20;99.90;;;;;;5014562;28;20423;-68
2022/04/10 03:20:19;;;;;;;8.23;3.30;;;4.20;99.90;;;;;;5014171;28;20274;-67
2022/04/10 03:22:45;;;;;;;3.87;2.60;;;4.30;99.90;;;;;;5014321;28;20207;-67
2022/04/10 03:25:11;;;;;;;5.67;2.40;;;4.40;99.90;;;;;;5014232;28;20276;-67
2022/04/10 03:27:36;;;;;;;3.87;2.60;;;4.40;99.90;;;;;;5014196;28;20627;-67
2022/04/10 03:30:03;;;;;;;7.07;3.63;;;4.40;99.90;;;;;;5014176;28;20525;-67
2022/04/10 03:32:28;;;;;;;6.17;3.40;;;4.40;99.90;;;;;;5014297;28;20415;-67
2022/04/10 03:34:54;;;;;;;4.77;2.73;;;4.40;99.90;;;;;;5013949;28;20419;-67
2022/04/10 03:37:20;;;;;;;6.20;3.20;;;4.40;99.90;;;;;;5014072;28;20191;-68
2022/04/10 03:39:45;;;;;;;3.90;2.80;;;4.40;99.90;;;;;;5014054;28;20274;-68
2022/04/10 03:42:11;;;;;;;4.10;3.00;;;4.50;99.90;;;;;;5014313;28;20257;-67
2022/04/10 03:44:37;;;;;;;3.80;2.43;;;4.40;99.90;;;;;;5014108;28;20187;-67
2022/04/10 03:47:03;;;;;;;6.30;3.53;;;4.40;99.90;;;;;;5013859;28;20188;-67
2022/04/10 03:49:29;;;;;;;5.33;2.90;;;4.40;99.90;;;;;;5013883;28;20294;-67
2022/04/10 03:51:54;;;;;;;4.73;3.57;;;4.50;99.90;;;;;;5013988;28;20427;-67
2022/04/10 03:54:20;;;;;;;5.67;3.17;;;4.50;99.90;;;;;;5013717;28;20225;-68
2022/04/10 03:56:46;;;;;;;5.60;3.00;;;4.60;99.90;;;;;;5013786;28;20522;-67
2022/04/10 03:59:12;;;;;;;5.43;3.17;;;4.60;99.90;;;;;;5013817;28;20200;-67
2022/04/10 04:01:37;;;;;;;5.77;3.17;;;4.60;99.90;;;;;;5013825;28;20614;-67
2022/04/10 04:04:03;;;;;;;4.80;3.40;;;4.60;99.90;;;;;;5013831;28;20183;-67
2022/04/10 04:06:29;;;;;;;5.73;4.00;;;4.50;99.90;;;;;;5013609;28;20830;-67
2022/04/10 04:08:55;;;;;;;6.63;3.63;;;4.50;99.90;;;;;;5013748;28;20453;-67
2022/04/10 04:11:20;;;;;;;4.43;3.03;;;4.60;99.90;;;;;;5013976;28;20183;-68
2022/04/10 04:13:46;;;;;;;4.50;3.40;;;4.50;99.90;;;;;;5013754;28;20212;-67
2022/04/10 04:16:12;;;;;;;4.10;2.80;;;4.50;99.90;;;;;;5013196;28;20180;-67
2022/04/10 04:18:38;;;;;;;6.80;3.37;;;4.50;99.90;;;;;;5013413;28;20295;-67
2022/04/10 04:21:04;;;;;;;5.93;3.37;;;4.30;99.90;;;;;;5013757;28;20184;-67
2022/04/10 04:23:30;;;;;;;7.07;3.20;;;4.30;99.90;;;;;;5013733;28;20418;-67
2022/04/10 04:25:56;;;;;;;3.87;3.33;;;4.30;99.90;;;;;;5013735;28;20427;-67
2022/04/10 04:28:22;;;;;;;5.67;2.73;;;4.10;99.90;;;;;;5013459;28;20196;-67
2022/04/10 04:30:47;;;;;;;6.47;3.47;;;4.00;99.90;;;;;;5013693;28;20415;-67
2022/04/10 04:33:13;;;;;;;5.03;3.33;;;4.00;99.90;;;;;;5015542;28;20219;-69
2022/04/10 04:35:39;;;;;;;5.67;3.03;;;4.00;99.90;;;;;;5017421;28;20221;-67
2022/04/10 04:38:05;;;;;;;7.20;2.97;;;4.00;99.90;;;;;;5017333;28;20621;-66
2022/04/10 04:40:31;;;;;;;6.10;3.60;;;3.90;99.90;;;;;;5017850;28;20430;-67
2022/04/10 04:42:56;;;;;;;6.40;3.23;;;3.80;99.90;;;;;;5017486;28;20583;-67
2022/04/10 04:45:23;;;;;;;4.43;2.93;;;3.80;99.90;;;;;;5017458;28;20506;-68
2022/04/10 04:47:48;;;;;;;5.50;3.50;;;3.70;99.90;;;;;;5017012;28;20664;-67
2022/04/10 04:50:14;;;;;;;8.70;4.23;;;3.70;99.90;;;;;;5017064;28;20442;-67
2022/04/10 04:52:40;;;;;;;6.73;3.40;;;3.80;99.90;;;;;;5017533;28;20561;-68
2022/04/10 04:55:06;;;;;;;4.30;3.03;;;3.80;99.90;;;;;;5017063;28;20183;-68
2022/04/10 04:57:32;;;;;;;8.33;3.53;;;3.80;99.90;;;;;;5016953;28;20184;-68
2022/04/10 04:59:58;;;;;;;6.10;3.50;;;3.90;99.90;;;;;;5017041;28;20949;-67
2022/04/10 05:02:24;;;;;;;5.37;3.10;;;3.90;99.90;;;;;;5016682;28;20204;-67
2022/04/10 05:04:51;;;;;;;5.10;4.00;;;3.90;99.90;;;;;;5016870;28;20219;-67
2022/04/10 05:07:17;;;;;;;5.70;3.33;;;3.90;99.90;;;;;;5016651;28;20188;-67
2022/04/10 05:09:45;;;;;;;6.77;4.00;;;4.00;99.90;;;;;;5016894;28;20972;-68
2022/04/10 05:12:12;;;;;;;12.77;3.27;;;4.00;99.90;;;;;;5016827;28;20475;-67
2022/04/10 05:14:37;;;;;;;7.23;3.30;;;4.00;99.90;;;;;;5017034;28;20979;-67
2022/04/10 05:17:03;;;;;;;5.10;3.80;;;4.10;99.90;;;;;;5016502;28;20427;-67
2022/04/10 05:19:29;;;;;;;5.17;3.20;;;4.10;99.90;;;;;;5016731;28;20200;-67
2022/04/10 05:21:58;;;;;;;5.70;3.77;;;4.00;99.90;;;;;;5016000;28;20523;-68
2022/04/10 05:24:23;;;;;;;4.73;3.53;;;4.10;99.90;;;;;;5016693;28;20231;-68
2022/04/10 05:26:49;;;;;;;10.10;3.90;;;4.20;99.90;;;;;;5016531;28;20423;-68
2022/04/10 05:29:15;;;;;;;6.73;3.60;;;4.20;99.90;;;;;;5016735;28;20750;-67
2022/04/10 05:31:40;;;;;;;6.43;3.63;;;4.20;99.90;;;;;;5016548;28;20188;-67
2022/04/10 05:34:06;;;;;;;5.30;3.67;;;4.20;99.90;;;;;;5016454;28;20176;-67
2022/04/10 05:36:32;;;;;;;5.77;3.40;;;4.20;99.90;;;;;;5016341;28;20177;-67
2022/04/10 05:38:57;;;;;;;9.80;3.80;;;4.20;99.90;;;;;;5016202;28;20202;-68
2022/04/10 05:41:23;;;;;;;5.50;3.50;;;4.10;99.90;;;;;;5016068;28;20298;-67
2022/04/10 05:43:49;;;;;;;5.10;3.87;;;4.20;99.90;;;;;;5014849;28;20231;-68
2022/04/10 05:46:15;;;;;;;5.07;3.70;;;4.10;99.90;;;;;;5016031;28;20184;-67
2022/04/10 05:48:41;;;;;;;6.47;4.57;;;4.20;99.90;;;;;;5015886;28;20459;-68
2022/04/10 05:51:08;;;;;;;6.80;3.57;;;4.20;99.90;;;;;;5016382;28;20419;-67
2022/04/10 05:53:33;;;;;;;6.47;4.00;;;4.30;99.90;;;;;;5016124;28;20231;-68
2022/04/10 05:55:59;;;;;;;8.33;4.40;;;4.40;99.90;;;;;;5015727;28;20950;-67
2022/04/10 05:58:28;;;;;;;6.13;4.07;;;4.50;99.90;;;;;;5015830;28;20762;-67
2022/04/10 06:00:55;;;;;;;8.40;4.10;;;4.50;99.90;;;;;;5015775;28;20183;-67
2022/04/10 06:03:21;;;;;;;6.20;4.10;;;4.50;99.90;;;;;;5016228;28;20953;-67
2022/04/10 06:05:47;;;;;;;7.47;5.03;;;4.60;99.90;;;;;;5015650;28;20411;-67
2022/04/10 06:08:13;;;;;;;9.23;5.73;;;4.60;99.90;;;;;;5015490;28;20504;-66
2022/04/10 06:10:38;;;;;;;9.93;5.97;;;4.70;99.90;;;;;;5015774;28;20271;-67
2022/04/10 06:13:11;;;;;;;9.67;5.30;;;4.80;99.90;;;;;;5015392;28;20180;-67
2022/04/10 06:15:37;;;;;;;6.67;4.90;;;5.00;99.90;;;;;;5015636;28;20423;-67
2022/04/10 06:18:03;;;;;;;7.00;4.23;;;5.10;99.90;;;;;;5015419;28;20914;-67
2022/04/10 06:20:29;;;;;;;7.70;5.40;;;5.20;99.90;;;;;;5015590;28;20718;-67
2022/04/10 06:22:55;;;;;;;7.07;4.50;;;5.30;99.90;;;;;;5015361;28;20536;-66
2022/04/10 06:25:21;;;;;;;6.70;4.50;;;5.40;99.90;;;;;;5015348;28;20430;-67
2022/04/10 06:27:46;;;;;;;8.50;4.40;;;5.60;99.90;;;;;;5014872;28;20188;-67
2022/04/10 06:30:12;;;;;;;6.87;4.10;;;5.70;99.90;;;;;;5015298;28;20436;-67
2022/04/10 06:32:38;;;;;;;6.67;3.67;;;5.90;99.90;;;;;;5015317;28;20486;-67
2022/04/10 06:35:04;;;;;;;6.30;3.50;;;6.00;99.90;;;;;;5014775;28;20241;-67
2022/04/10 06:37:30;;;;;;;9.13;4.53;;;6.20;99.90;;;;;;5014946;28;20285;-67
2022/04/10 06:39:55;;;;;;;7.57;4.33;;;6.40;99.90;;;;;;5014866;28;20533;-67
2022/04/10 06:42:21;;;;;;;7.97;3.83;;;6.50;99.90;;;;;;5014649;28;20238;-67
2022/04/10 06:44:47;;;;;;;5.83;4.10;;;6.50;99.90;;;;;;5014573;28;20183;-68
2022/04/10 06:47:13;;;;;;;8.10;4.30;;;6.60;99.90;;;;;;5014929;28;20184;-69
2022/04/10 06:49:38;;;;;;;6.33;3.93;;;6.60;99.90;;;;;;5014919;28;20441;-67
2022/04/10 06:52:04;;;;;;;6.90;4.70;;;6.70;99.90;;;;;;5015081;28;20532;-67
2022/04/10 06:54:30;;;;;;;7.67;4.37;;;6.70;99.90;;;;;;5014842;28;20278;-66
2022/04/10 06:56:56;;;;;;;7.70;4.10;;;6.80;99.90;;;;;;5014278;28;20513;-67
2022/04/10 06:59:22;;;;;;;9.20;4.97;;;6.90;99.90;;;;;;5014743;28;20213;-67
2022/04/10 07:01:50;;;;;;;6.43;4.87;;;7.00;99.90;;;;;;5014846;28;20314;-67
2022/04/10 07:04:16;;;;;;;8.17;5.27;;;7.10;99.90;;;;;;5014791;28;20187;-64
2022/04/10 07:06:46;;;;;;;7.77;4.63;;;7.20;99.90;;;;;;5014441;28;20814;-65
2022/04/10 07:09:15;;;;;;;8.17;4.53;;;7.20;99.90;;;;;;5014692;28;20204;-65
2022/04/10 07:11:41;;;;;;;8.20;5.20;;;7.30;99.90;;;;;;5014734;28;20814;-65
2022/04/10 07:14:07;;;;;;;6.60;4.40;;;7.30;99.90;;;;;;5014563;28;20454;-66
2022/04/10 07:16:33;;;;;;;7.03;4.60;;;7.20;99.90;;;;;;5014503;28;20473;-65
2022/04/10 07:18:59;;;;;;;6.73;4.37;;;7.30;99.90;;;;;;5013737;28;20465;-64
2022/04/10 07:24:09;;;;;;;8.40;5.17;;;7.40;99.90;;;;;;5032398;28;20187;-65
2022/04/10 07:26:35;;;;;;;8.63;5.23;;;7.50;99.90;;;;;;5013958;28;20415;-65
2022/04/10 07:29:01;;;;;;;6.93;4.47;;;7.60;99.90;;;;;;5014195;28;20439;-65
2022/04/10 07:31:26;;;;;;;8.43;5.07;;;7.70;99.90;;;;;;5014374;28;20191;-67
2022/04/10 07:33:52;;;;;;;12.07;4.40;;;7.90;99.90;;;;;;5014484;28;20322;-66
2022/04/10 07:36:18;;;;;;;10.80;5.40;;;7.90;99.90;;;;;;5014107;28;20925;-67
2022/04/10 07:38:44;;;;;;;9.87;4.67;;;8.00;99.90;;;;;;5013970;28;20208;-67
2022/04/10 07:41:09;;;;;;;7.67;4.77;;;8.10;99.90;;;;;;5014116;28;20223;-67
2022/04/10 07:43:35;;;;;;;6.00;4.27;;;8.20;99.90;;;;;;5014279;28;20191;-65
2022/04/10 07:48:45;;;;;;;6.83;4.00;;;8.30;99.90;;;;;;5032060;28;20698;-65
2022/04/10 07:51:10;;;;;;;9.00;5.90;;;8.30;99.90;;;;;;5013537;28;20423;-65
2022/04/10 07:53:36;;;;;;;6.60;4.63;;;8.30;99.90;;;;;;5013990;28;20215;-65
2022/04/10 07:56:02;;;;;;;10.23;4.90;;;8.40;99.90;;;;;;5014104;28;20187;-65
2022/04/10 07:58:28;;;;;;;13.93;4.97;;;8.40;99.90;;;;;;5013704;28;20206;-65
2022/04/10 08:00:53;;;;;;;7.23;4.80;;;8.50;99.90;;;;;;5014204;28;20263;-65
2022/04/10 08:03:19;;;;;;;6.30;4.10;;;8.60;99.90;;;;;;5013934;28;20220;-65
2022/04/10 08:05:45;;;;;;;6.70;4.70;;;8.70;99.90;;;;;;5013974;28;20180;-64
2022/04/10 08:08:11;;;;;;;7.27;4.53;;;8.70;99.90;;;;;;5034699;23;20494;-82
2022/04/10 08:10:37;;;;;;;6.83;4.43;;;8.80;99.90;;;;;;5037045;28;20200;-82
2022/04/10 08:13:03;;;;;;;8.07;4.13;;;8.90;99.90;;;;;;5018701;28;20423;-82
2022/04/10 08:15:29;;;;;;;6.80;3.80;;;8.90;99.90;;;;;;5018733;28;20423;-83
2022/04/10 08:17:56;;;;;;;10.10;4.63;;;9.00;99.90;;;;;;5035805;28;20199;-82
2022/04/10 08:20:22;;;;;;;6.27;4.17;;;9.20;99.90;;;;;;5018567;28;20203;-81
2022/04/10 08:22:49;;;;;;;7.20;4.70;;;9.30;99.90;;;;;;5036217;28;20458;-82
2022/04/10 08:25:16;;;;;;;6.33;4.70;;;9.40;99.90;;;;;;5018366;28;20419;-82
2022/04/10 08:27:42;;;;;;;9.23;5.00;;;9.30;99.90;;;;;;5017632;28;20443;-81
2022/04/10 08:30:09;;;;;;;10.67;4.67;;;9.20;99.90;;;;;;5018294;28;20421;-82
2022/04/10 08:32:39;;;;;;;5.63;3.90;;;9.10;99.90;;;;;;5018394;28;20562;-82
2022/04/10 08:35:06;;;;;;;6.80;3.70;;;9.30;99.90;;;;;;5036015;28;20419;-82
2022/04/10 08:37:32;;;;;;;5.70;3.23;;;9.60;99.90;;;;;;5035410;28;20484;-83
2022/04/10 08:39:57;;;;;;;5.00;3.30;;;9.90;99.90;;;;;;5035869;28;20415;-82
2022/04/10 08:42:23;;;;;;;6.50;4.23;;;10.40;99.90;;;;;;5018258;28;20210;-82
2022/04/10 08:44:49;;;;;;;6.67;4.20;;;10.80;99.90;;;;;;5018888;28;20176;-82
2022/04/10 08:47:20;;;;;;;6.17;3.93;;;10.80;99.90;;;;;;5017065;28;20202;-82
2022/04/10 08:49:47;;;;;;;5.37;3.47;;;10.70;99.90;;;;;;5018428;28;20169;-83
2022/04/10 08:52:16;;;;;;;4.20;1.80;;;10.40;99.90;;;;;;5018039;28;20419;-83
2022/04/10 08:54:43;;;;;;;3.87;2.33;;;10.30;99.90;;;;;;5018066;28;20925;-82
2022/04/10 08:57:08;;;;;;;4.30;2.50;;;11.30;99.90;;;;;;5035024;28;20445;-82
2022/04/10 08:59:34;;;;;;;4.00;2.40;;;12.80;99.90;;;;;;5075442;28;20413;-82
2022/04/10 09:01:59;;;;;;;6.17;3.20;;;12.40;99.90;;;;;;5075456;28;20208;-82
2022/04/10 09:04:25;;;;;;;4.83;2.63;;;12.00;99.90;;;;;;5057847;28;20179;-82
2022/04/10 09:07:11;;;;;;;8.37;2.80;;;11.60;99.90;;;;;;5046512;28;20774;-83
2022/04/10 09:09:41;;;;;;;4.40;3.40;;;13.00;99.90;;;;;;5018206;28;20703;-83
2022/04/10 09:12:08;;;;;;;6.00;3.20;;;12.90;99.90;;;;;;5050834;28;20425;-83
2022/04/10 09:14:39;;;;;;;5.43;3.03;;;12.40;99.90;;;;;;5057627;28;20985;-82
2022/04/10 09:17:18;;;;;;;7.50;3.70;;;11.40;99.90;;;;;;5056154;28;20520;-82
2022/04/10 09:19:51;;;;;;;8.00;3.43;;;11.40;99.90;;;;;;5056548;28;20417;-82
2022/04/10 09:22:23;;;;;;;4.63;2.20;;;12.10;99.90;;;;;;5057318;28;20460;-82
2022/04/10 09:25:14;;;;;;;5.10;2.57;;;13.60;99.90;;;;;;5057125;28;20428;-83
2022/04/10 09:27:41;;;;;;;5.97;3.00;;;14.10;98.40;;;;;;5056761;28;20520;-83
2022/04/10 09:30:19;;;;;;;6.77;3.40;;;13.90;99.00;;;;;;5056934;28;20409;-82
2022/04/10 09:32:50;;;;;;;5.47;2.83;;;13.20;98.80;;;;;;5056938;28;20424;-82
2022/04/10 09:35:20;;;;;;;4.30;2.90;;;12.50;99.90;;;;;;5075031;28;20398;-83
2022/04/10 09:37:52;;;;;;;5.13;2.83;;;13.00;99.90;;;;;;5056353;28;20441;-83
2022/04/10 09:40:27;;;;;;;5.03;3.23;;;15.60;99.90;;;;;;5056968;28;20421;-83
2022/04/10 09:43:08;;;;;;;5.17;2.70;;;18.80;77.70;;;;;;5056716;28;20486;-83
2022/04/10 09:45:41;;;;;;;5.70;2.60;;;19.30;76.50;;;;;;5056714;28;20840;-83
2022/04/10 09:48:33;;;;;;;4.17;2.90;;;21.30;62.20;;;;;;5055835;28;20865;-83
2022/04/10 09:51:03;;;;;;;6.17;2.20;;;21.40;52.70;;;;;;5052048;28;20421;-83
2022/04/10 09:53:30;;;;;;;7.40;2.43;;;19.00;51.30;;;;;;5054350;28;20427;-82
2022/04/10 09:56:02;;;;;;;3.57;2.27;;;17.50;53.90;;;;;;5030782;28;20430;-83
2022/04/10 09:58:28;;;;;;;4.30;2.07;;;17.20;56.20;;;;;;5016363;28;20443;-83
2022/04/10 10:00:55;;;;;;;4.47;2.20;;;18.70;56.00;;;;;;5016594;28;20423;-83
2022/04/10 10:03:25;;;;;;;5.10;2.30;;;18.20;53.70;;;;;;5016608;28;20458;-83
2022/04/10 10:05:52;;;;;;;3.30;2.07;;;17.20;55.90;;;;;;5016525;28;20890;-83
2022/04/10 10:08:18;;;;;;;5.00;2.50;;;16.00;58.50;;;;;;5033409;28;20504;-82
2022/04/10 10:10:45;;;;;;;4.00;2.50;;;15.60;59.00;;;;;;5034170;28;20502;-83
2022/04/10 10:13:14;;;;;;;4.13;2.33;;;15.10;60.00;;;;;;5016329;28;20423;-83
2022/04/10 10:15:41;;;;;;;5.37;2.17;;;14.20;65.20;;;;;;5016489;28;20415;-83
2022/04/10 10:18:09;;;;;;;3.43;2.13;;;16.00;66.10;;;;;;5015752;28;20497;-83
2022/04/10 10:20:36;;;;;;;4.07;2.40;;;18.80;56.90;;;;;;5016190;28;20453;-83
2022/04/10 10:23:04;;;;;;;4.10;1.90;;;18.60;54.60;;;;;;5016096;28;20470;-84
2022/04/10 10:25:34;;;;;;;2.80;1.80;;;17.30;52.60;;;;;;5016278;28;20415;-83
2022/04/10 10:28:30;;;;;;;4.53;1.70;;;14.20;57.90;;;;;;5015845;28;20485;-83
2022/04/10 10:31:14;;;;;;;3.47;2.17;;;13.30;69.10;;;;;;5015271;28;20443;-83
2022/04/10 10:34:06;;;;;;;4.50;2.33;;;12.50;81.10;;;;;;5015962;28;20416;-82
2022/04/10 10:36:32;;;;;;;3.20;1.87;;;12.60;94.00;;;;;;5033190;28;20392;-83
2022/04/10 10:38:59;;;;;;;4.33;2.43;;;13.80;96.10;;;;;;5015970;28;20426;-83
2022/04/10 10:41:25;;;;;;;4.00;2.10;;;16.20;88.00;;;;;;5033699;28;20706;-83
2022/04/10 10:43:51;;;;;;;4.20;2.30;;;17.80;72.50;;;;;;5033496;28;20494;-84
2022/04/10 10:46:28;;;;;;;4.87;2.10;;;21.40;58.90;;;;;;5015797;28;20549;-84
2022/04/10 10:49:14;;;;;;;4.30;2.30;;;20.90;50.20;;;;;;5015892;28;20956;-83
2022/04/10 10:51:43;;;;;;;3.53;1.73;;;20.20;49.00;;;;;;5015737;28;20946;-84
2022/04/10 10:54:14;;;;;;;3.53;2.10;;;21.50;50.70;;;;;;5015573;28;20418;-83
2022/04/10 10:56:42;;;;;;;3.13;1.80;;;21.80;47.50;;;;;;5015035;28;20676;-83
2022/04/10 10:59:21;;;;;;;3.37;1.70;;;21.40;48.10;;;;;;5033207;28;20422;-83
2022/04/10 11:02:04;;;;;;;4.47;2.00;;;18.20;46.20;;;;;;5015593;28;20494;-83
2022/04/10 11:04:40;;;;;;;3.43;1.87;;;18.20;46.70;;;;;;5021668;28;20434;-83
2022/04/10 11:07:14;;;;;;;3.63;1.97;;;16.40;46.80;;;;;;5066525;28;20455;-83
2022/04/10 11:09:55;;;;;;;3.40;1.80;;;15.60;49.20;;;;;;5055234;28;20420;-82
2022/04/10 11:12:23;;;;;;;3.50;1.83;;;15.10;52.20;;;;;;5055119;28;20492;-83
2022/04/10 11:14:56;;;;;;;2.50;1.50;;;15.00;52.80;;;;;;5072914;28;20496;-83
2022/04/10 11:17:29;;;;;;;3.57;1.60;;;14.90;53.50;;;;;;5054338;28;20445;-83
2022/04/10 11:20:07;;;;;;;3.30;1.67;;;14.40;53.30;;;;;;5066799;28;20434;-83
2022/04/10 11:22:46;;;;;;;2.47;1.13;;;14.50;53.90;;;;;;5035054;28;20506;-83
2022/04/10 11:25:12;;;;;;;3.83;1.50;;;14.60;55.00;;;;;;5035184;28;20418;-82
2022/04/10 11:27:43;;;;;;;3.20;1.33;;;14.80;56.30;;;;;;5052188;28;20778;-83
2022/04/10 11:30:12;;;;;;;2.90;1.20;;;15.90;56.00;;;;;;5034872;28;20175;-83
2022/04/10 11:32:52;;;;;;;3.57;1.70;;;15.70;53.70;;;;;;5035055;28;20925;-84
2022/04/10 11:35:26;;;;;;;4.97;1.57;;;16.40;57.50;;;;;;5053150;28;20428;-84
2022/04/10 11:37:59;;;;;;;3.30;1.40;;;17.80;52.50;;;;;;5013496;28;20974;-83
2022/04/10 11:40:27;;;;;;;3.83;1.40;;;17.40;50.40;;;;;;5032017;28;20431;-84
2022/04/10 11:42:55;;;;;;;3.00;1.50;;;17.30;50.20;;;;;;5033871;28;20466;-83
2022/04/10 11:45:32;;;;;;;2.77;1.53;;;17.40;51.40;;;;;;5032628;28;20470;-83
2022/04/10 11:47:58;;;;;;;3.47;1.50;;;18.90;52.60;;;;;;5031509;28;20427;-84
2022/04/10 11:50:28;;;;;;;2.50;1.43;;;20.10;52.00;;;;;;5013955;28;21163;-88
2022/04/10 11:53:29;;;;;;;2.73;1.47;;;21.20;48.60;;;;;;5032719;28;20430;-84
2022/04/10 11:55:54;;;;;;;2.90;1.70;;;22.50;49.30;;;;;;5044203;28;20422;-84
2022/04/10 11:58:24;;;;;;;3.67;1.77;;;23.20;46.30;;;;;;5062080;28;20438;-84
2022/04/10 12:00:54;;;;;;;3.20;1.80;;;24.70;43.30;;;;;;5067842;28;20168;-84
2022/04/10 12:03:22;;;;;;;3.70;1.40;;;23.70;40.00;;;;;;5036231;28;20465;-84
2022/04/10 12:05:51;;;;;;;3.63;2.10;;;23.40;40.40;;;;;;5034760;28;20634;-84
2022/04/10 12:08:18;;;;;;;4.90;2.10;;;22.30;41.60;;;;;;5034045;28;20464;-85
2022/04/10 12:10:53;;;;;;;3.60;1.70;;;22.10;41.30;;;;;;5034514;28;20406;-85
2022/04/10 12:13:19;;;;;;;2.70;1.80;;;20.90;39.30;;;;;;5054509;28;20421;-84
2022/04/10 12:15:45;;;;;;;5.67;1.80;;;21.20;41.00;;;;;;5036723;28;20429;-84
2022/04/10 12:18:13;;;;;;;3.63;1.80;;;21.30;41.70;;;;;;5036272;28;20203;-84
2022/04/10 12:20:41;;;;;;;3.87;1.87;;;21.90;42.20;;;;;;5037235;28;20179;-84
2022/04/10 12:23:18;;;;;;;2.50;1.57;;;22.60;40.40;;;;;;5037345;28;20462;-84
2022/04/10 12:25:44;;;;;;;3.47;2.10;;;23.80;40.00;;;;;;5037147;28;20471;-85
2022/04/10 12:28:10;;;;;;;3.80;1.50;;;24.70;38.50;;;;;;5036083;28;20434;-84
2022/04/10 12:30:38;;;;;;;5.93;2.03;;;24.40;36.90;;;;;;5052488;28;20410;-86
2022/04/10 12:33:05;;;;;;;2.50;1.47;;;24.80;36.60;;;;;;5052355;28;20172;-85
2022/04/10 12:35:37;;;;;;;3.83;1.77;;;25.00;36.50;;;;;;5051918;28;20558;-86
2022/04/10 12:38:03;;;;;;;3.93;2.00;;;25.80;36.60;;;;;;5050949;28;20429;-85
2022/04/10 12:40:29;;;;;;;3.10;1.63;;;26.70;34.80;;;;;;5033814;28;20476;-86
2022/04/10 12:43:02;;;;;;;5.43;1.70;;;27.60;34.10;;;;;;5051259;28;20221;-85
2022/04/10 12:45:30;;;;;;;2.80;1.67;;;26.70;32.40;;;;;;5051626;28;20548;-85
2022/04/10 12:47:55;;;;;;;3.03;1.50;;;28.20;33.20;;;;;;5033285;28;20483;-86
2022/04/10 12:50:24;;;;;;;3.27;1.70;;;28.60;31.80;;;;;;5033397;28;20422;-86
2022/04/10 12:52:54;;;;;;;3.03;1.93;;;27.50;30.50;;;;;;5041127;28;20271;-86
2022/04/10 12:55:36;;;;;;;2.93;1.60;;;27.70;30.50;;;;;;5046530;28;20480;-85
2022/04/10 12:58:09;;;;;;;2.60;1.60;;;27.50;29.70;;;;;;5061544;23;20649;-67
2022/04/10 13:00:45;;;;;;;3.30;1.90;;;25.00;30.20;;;;;;5056364;28;20920;-67